sensor_id;sensor_type;location;lat;lon;timestamp;P1;durP1;ratioP1;P2;durP2;ratioP2
10088;SDS011;51898;49.864;8.550;2024-03-17T00:02:18;10.37;;;7.63;;
10088;SDS011;51898;49.864;8.550;2024-03-17T00:05:19;16.90;;;9.93;;
10088;SDS011;51898;49.864;8.550;2024-03-17T00:08:20;12.63;;;8.37;;
10088;SDS011;51898;49.864;8.550;2024-03-17T00:11:21;12.57;;;8.30;;
10088;SDS011;51898;49.864;8.550;2024-03-17T00:14:22;12.07;;;8.90;;
10088;SDS011;51898;49.864;8.550;2024-03-17T00:17:23;14.63;;;7.63;;
10088;SDS011;51898;49.864;8.550;2024-03-17T00:20:24;11.37;;;8.70;;
10088;SDS011;51898;49.864;8.550;2024-03-17T00:23:25;11.07;;;8.40;;
10088;SDS011;51898;49.864;8.550;2024-03-17T00:26:26;10.60;;;8.07;;
10088;SDS011;51898;49.864;8.550;2024-03-17T00:29:29;10.40;;;7.17;;
10088;SDS011;51898;49.864;8.550;2024-03-17T00:32:30;11.60;;;7.83;;
10088;SDS011;51898;49.864;8.550;2024-03-17T00:35:31;11.10;;;8.20;;
10088;SDS011;51898;49.864;8.550;2024-03-17T00:38:31;9.93;;;7.07;;
10088;SDS011;51898;49.864;8.550;2024-03-17T00:41:33;9.93;;;7.60;;
10088;SDS011;51898;49.864;8.550;2024-03-17T00:44:35;10.07;;;6.93;;
10088;SDS011;51898;49.864;8.550;2024-03-17T00:47:36;11.90;;;7.10;;
10088;SDS011;51898;49.864;8.550;2024-03-17T00:50:37;12.10;;;8.07;;
10088;SDS011;51898;49.864;8.550;2024-03-17T00:53:38;10.40;;;8.00;;
10088;SDS011;51898;49.864;8.550;2024-03-17T00:56:39;12.70;;;8.27;;
10088;SDS011;51898;49.864;8.550;2024-03-17T00:59:40;16.93;;;10.57;;
10088;SDS011;51898;49.864;8.550;2024-03-17T01:02:42;12.40;;;8.63;;
10088;SDS011;51898;49.864;8.550;2024-03-17T01:05:43;14.60;;;9.97;;
10088;SDS011;51898;49.864;8.550;2024-03-17T01:08:45;18.60;;;12.20;;
10088;SDS011;51898;49.864;8.550;2024-03-17T01:11:46;14.40;;;10.80;;
10088;SDS011;51898;49.864;8.550;2024-03-17T01:14:46;13.63;;;9.10;;
10088;SDS011;51898;49.864;8.550;2024-03-17T01:17:47;13.53;;;9.03;;
10088;SDS011;51898;49.864;8.550;2024-03-17T01:20:48;14.33;;;9.13;;
10088;SDS011;51898;49.864;8.550;2024-03-17T01:23:49;11.40;;;8.53;;
10088;SDS011;51898;49.864;8.550;2024-03-17T01:26:50;15.50;;;9.50;;
10088;SDS011;51898;49.864;8.550;2024-03-17T01:29:50;14.07;;;8.60;;
10088;SDS011;51898;49.864;8.550;2024-03-17T01:32:51;12.23;;;8.83;;
10088;SDS011;51898;49.864;8.550;2024-03-17T01:35:52;13.43;;;8.57;;
10088;SDS011;51898;49.864;8.550;2024-03-17T01:38:53;13.33;;;8.73;;
10088;SDS011;51898;49.864;8.550;2024-03-17T01:41:54;11.77;;;9.10;;
10088;SDS011;51898;49.864;8.550;2024-03-17T01:44:55;13.53;;;9.30;;
10088;SDS011;51898;49.864;8.550;2024-03-17T01:47:56;11.83;;;8.47;;
10088;SDS011;51898;49.864;8.550;2024-03-17T01:50:59;14.30;;;9.73;;
10088;SDS011;51898;49.864;8.550;2024-03-17T01:54:00;14.30;;;9.73;;
10088;SDS011;51898;49.864;8.550;2024-03-17T01:57:00;10.90;;;8.53;;
10088;SDS011;51898;49.864;8.550;2024-03-17T02:00:01;17.30;;;11.30;;
10088;SDS011;51898;49.864;8.550;2024-03-17T02:03:03;19.33;;;10.83;;
10088;SDS011;51898;49.864;8.550;2024-03-17T02:06:11;18.77;;;9.57;;
10088;SDS011;51898;49.864;8.550;2024-03-17T02:09:12;14.97;;;10.67;;
10088;SDS011;51898;49.864;8.550;2024-03-17T02:12:13;18.57;;;9.87;;
10088;SDS011;51898;49.864;8.550;2024-03-17T02:15:13;12.57;;;8.40;;
10088;SDS011;51898;49.864;8.550;2024-03-17T02:18:14;13.47;;;7.90;;
10088;SDS011;51898;49.864;8.550;2024-03-17T02:21:15;12.07;;;6.97;;
10088;SDS011;51898;49.864;8.550;2024-03-17T02:24:16;11.40;;;8.13;;
10088;SDS011;51898;49.864;8.550;2024-03-17T02:27:17;14.13;;;8.60;;
10088;SDS011;51898;49.864;8.550;2024-03-17T02:30:20;10.27;;;8.07;;
10088;SDS011;51898;49.864;8.550;2024-03-17T02:34:00;10.90;;;7.43;;
10088;SDS011;51898;49.864;8.550;2024-03-17T02:37:43;10.13;;;6.90;;
10088;SDS011;51898;49.864;8.550;2024-03-17T02:40:43;9.40;;;7.17;;
10088;SDS011;51898;49.864;8.550;2024-03-17T02:43:44;13.20;;;7.30;;
10088;SDS011;51898;49.864;8.550;2024-03-17T02:46:48;11.20;;;6.83;;
10088;SDS011;51898;49.864;8.550;2024-03-17T02:49:49;9.17;;;6.60;;
10088;SDS011;51898;49.864;8.550;2024-03-17T02:52:52;9.53;;;6.43;;
10088;SDS011;51898;49.864;8.550;2024-03-17T02:55:56;8.57;;;6.07;;
10088;SDS011;51898;49.864;8.550;2024-03-17T02:58:56;7.93;;;6.57;;
10088;SDS011;51898;49.864;8.550;2024-03-17T03:01:58;8.87;;;6.00;;
10088;SDS011;51898;49.864;8.550;2024-03-17T03:04:59;8.37;;;5.70;;
10088;SDS011;51898;49.864;8.550;2024-03-17T03:08:00;11.23;;;6.40;;
10088;SDS011;51898;49.864;8.550;2024-03-17T03:11:01;10.63;;;6.60;;
10088;SDS011;51898;49.864;8.550;2024-03-17T03:14:02;10.33;;;6.53;;
10088;SDS011;51898;49.864;8.550;2024-03-17T03:17:03;10.90;;;6.20;;
10088;SDS011;51898;49.864;8.550;2024-03-17T03:20:04;6.87;;;5.50;;
10088;SDS011;51898;49.864;8.550;2024-03-17T03:23:06;8.93;;;5.90;;
10088;SDS011;51898;49.864;8.550;2024-03-17T03:26:07;7.40;;;5.63;;
10088;SDS011;51898;49.864;8.550;2024-03-17T03:29:09;10.20;;;5.70;;
10088;SDS011;51898;49.864;8.550;2024-03-17T03:32:11;8.43;;;5.90;;
10088;SDS011;51898;49.864;8.550;2024-03-17T03:35:11;8.60;;;5.43;;
10088;SDS011;51898;49.864;8.550;2024-03-17T03:38:12;6.83;;;5.20;;
10088;SDS011;51898;49.864;8.550;2024-03-17T03:41:14;8.23;;;5.73;;
10088;SDS011;51898;49.864;8.550;2024-03-17T03:44:16;8.80;;;5.40;;
10088;SDS011;51898;49.864;8.550;2024-03-17T03:47:18;7.47;;;5.17;;
10088;SDS011;51898;49.864;8.550;2024-03-17T03:50:20;10.23;;;5.27;;
10088;SDS011;51898;49.864;8.550;2024-03-17T03:53:21;8.57;;;5.77;;
10088;SDS011;51898;49.864;8.550;2024-03-17T03:56:22;7.97;;;5.83;;
10088;SDS011;51898;49.864;8.550;2024-03-17T03:59:24;7.63;;;5.80;;
10088;SDS011;51898;49.864;8.550;2024-03-17T04:02:25;9.50;;;5.90;;
10088;SDS011;51898;49.864;8.550;2024-03-17T04:05:31;10.13;;;6.00;;
10088;SDS011;51898;49.864;8.550;2024-03-17T04:08:34;7.30;;;5.80;;
10088;SDS011;51898;49.864;8.550;2024-03-17T04:11:36;10.30;;;6.57;;
10088;SDS011;51898;49.864;8.550;2024-03-17T04:14:36;9.77;;;5.77;;
10088;SDS011;51898;49.864;8.550;2024-03-17T04:17:37;10.63;;;6.87;;
10088;SDS011;51898;49.864;8.550;2024-03-17T04:20:40;8.43;;;6.50;;
10088;SDS011;51898;49.864;8.550;2024-03-17T04:23:40;7.80;;;5.60;;
10088;SDS011;51898;49.864;8.550;2024-03-17T04:26:41;10.37;;;6.33;;
10088;SDS011;51898;49.864;8.550;2024-03-17T04:29:43;9.17;;;6.30;;
10088;SDS011;51898;49.864;8.550;2024-03-17T04:32:48;10.60;;;7.00;;
10088;SDS011;51898;49.864;8.550;2024-03-17T04:35:48;7.37;;;5.60;;
10088;SDS011;51898;49.864;8.550;2024-03-17T04:38:49;7.90;;;5.67;;
10088;SDS011;51898;49.864;8.550;2024-03-17T04:41:51;7.87;;;5.70;;
10088;SDS011;51898;49.864;8.550;2024-03-17T04:44:52;12.67;;;6.57;;
10088;SDS011;51898;49.864;8.550;2024-03-17T04:47:54;11.70;;;6.63;;
10088;SDS011;51898;49.864;8.550;2024-03-17T04:50:55;10.00;;;7.23;;
10088;SDS011;51898;49.864;8.550;2024-03-17T04:53:56;12.90;;;7.20;;
10088;SDS011;51898;49.864;8.550;2024-03-17T04:56:56;12.20;;;6.83;;
10088;SDS011;51898;49.864;8.550;2024-03-17T04:59:57;11.00;;;6.10;;
10088;SDS011;51898;49.864;8.550;2024-03-17T05:02:58;9.07;;;6.87;;
10088;SDS011;51898;49.864;8.550;2024-03-17T05:06:02;9.90;;;6.50;;
10088;SDS011;51898;49.864;8.550;2024-03-17T05:09:04;13.07;;;6.30;;
10088;SDS011;51898;49.864;8.550;2024-03-17T05:12:05;10.53;;;6.73;;
10088;SDS011;51898;49.864;8.550;2024-03-17T05:15:06;9.90;;;6.00;;
10088;SDS011;51898;49.864;8.550;2024-03-17T05:18:07;8.23;;;6.60;;
10088;SDS011;51898;49.864;8.550;2024-03-17T05:21:08;8.57;;;6.20;;
10088;SDS011;51898;49.864;8.550;2024-03-17T05:24:09;10.80;;;6.53;;
10088;SDS011;51898;49.864;8.550;2024-03-17T05:27:10;7.43;;;5.50;;
10088;SDS011;51898;49.864;8.550;2024-03-17T05:30:11;8.93;;;7.27;;
10088;SDS011;51898;49.864;8.550;2024-03-17T05:33:12;8.50;;;6.93;;
10088;SDS011;51898;49.864;8.550;2024-03-17T05:36:13;8.17;;;5.73;;
10088;SDS011;51898;49.864;8.550;2024-03-17T05:39:14;9.30;;;5.90;;
10088;SDS011;51898;49.864;8.550;2024-03-17T05:42:15;10.57;;;6.10;;
10088;SDS011;51898;49.864;8.550;2024-03-17T05:45:15;10.43;;;5.90;;
10088;SDS011;51898;49.864;8.550;2024-03-17T05:48:16;8.50;;;5.87;;
10088;SDS011;51898;49.864;8.550;2024-03-17T05:51:17;9.90;;;5.57;;
10088;SDS011;51898;49.864;8.550;2024-03-17T05:54:18;9.13;;;5.20;;
10088;SDS011;51898;49.864;8.550;2024-03-17T05:57:19;7.40;;;5.57;;
10088;SDS011;51898;49.864;8.550;2024-03-17T06:00:20;6.70;;;5.13;;
10088;SDS011;51898;49.864;8.550;2024-03-17T06:03:21;7.33;;;5.90;;
10088;SDS011;51898;49.864;8.550;2024-03-17T06:06:22;11.20;;;5.80;;
10088;SDS011;51898;49.864;8.550;2024-03-17T06:09:23;6.37;;;4.50;;
10088;SDS011;51898;49.864;8.550;2024-03-17T06:12:24;7.10;;;5.67;;
10088;SDS011;51898;49.864;8.550;2024-03-17T06:15:25;7.07;;;5.00;;
10088;SDS011;51898;49.864;8.550;2024-03-17T06:18:27;8.83;;;4.83;;
10088;SDS011;51898;49.864;8.550;2024-03-17T06:21:28;11.43;;;5.23;;
10088;SDS011;51898;49.864;8.550;2024-03-17T06:24:28;6.90;;;4.20;;
10088;SDS011;51898;49.864;8.550;2024-03-17T06:27:29;8.03;;;5.00;;
10088;SDS011;51898;49.864;8.550;2024-03-17T06:30:31;6.70;;;4.80;;
10088;SDS011;51898;49.864;8.550;2024-03-17T06:33:33;6.00;;;4.30;;
10088;SDS011;51898;49.864;8.550;2024-03-17T06:36:34;4.77;;;4.03;;
10088;SDS011;51898;49.864;8.550;2024-03-17T06:39:34;5.93;;;4.80;;
10088;SDS011;51898;49.864;8.550;2024-03-17T06:42:35;7.30;;;4.63;;
10088;SDS011;51898;49.864;8.550;2024-03-17T06:45:36;6.60;;;5.33;;
10088;SDS011;51898;49.864;8.550;2024-03-17T06:48:37;8.27;;;5.20;;
10088;SDS011;51898;49.864;8.550;2024-03-17T06:51:38;7.27;;;5.40;;
10088;SDS011;51898;49.864;8.550;2024-03-17T06:54:38;9.00;;;5.70;;
10088;SDS011;51898;49.864;8.550;2024-03-17T06:57:43;7.60;;;4.97;;
10088;SDS011;51898;49.864;8.550;2024-03-17T07:00:52;8.33;;;5.13;;
10088;SDS011;51898;49.864;8.550;2024-03-17T07:03:53;7.67;;;6.20;;
10088;SDS011;51898;49.864;8.550;2024-03-17T07:06:54;8.30;;;5.40;;
10088;SDS011;51898;49.864;8.550;2024-03-17T07:09:58;6.60;;;5.33;;
10088;SDS011;51898;49.864;8.550;2024-03-17T07:12:59;5.80;;;4.83;;
10088;SDS011;51898;49.864;8.550;2024-03-17T07:16:00;8.30;;;5.10;;
10088;SDS011;51898;49.864;8.550;2024-03-17T07:19:06;8.17;;;4.93;;
10088;SDS011;51898;49.864;8.550;2024-03-17T07:22:06;5.93;;;5.03;;
10088;SDS011;51898;49.864;8.550;2024-03-17T07:25:08;5.20;;;4.70;;
10088;SDS011;51898;49.864;8.550;2024-03-17T07:28:09;8.30;;;5.30;;
10088;SDS011;51898;49.864;8.550;2024-03-17T07:31:10;5.10;;;4.33;;
10088;SDS011;51898;49.864;8.550;2024-03-17T07:34:11;9.10;;;4.80;;
10088;SDS011;51898;49.864;8.550;2024-03-17T07:37:12;9.73;;;4.33;;
10088;SDS011;51898;49.864;8.550;2024-03-17T07:40:15;5.10;;;4.57;;
10088;SDS011;51898;49.864;8.550;2024-03-17T07:43:17;5.80;;;4.97;;
10088;SDS011;51898;49.864;8.550;2024-03-17T07:46:17;6.67;;;4.70;;
10088;SDS011;51898;49.864;8.550;2024-03-17T07:49:18;5.17;;;4.17;;
10088;SDS011;51898;49.864;8.550;2024-03-17T07:52:19;7.77;;;3.93;;
10088;SDS011;51898;49.864;8.550;2024-03-17T07:55:20;6.33;;;4.13;;
10088;SDS011;51898;49.864;8.550;2024-03-17T07:58:21;4.60;;;4.13;;
10088;SDS011;51898;49.864;8.550;2024-03-17T08:01:21;6.50;;;5.20;;
10088;SDS011;51898;49.864;8.550;2024-03-17T08:04:22;5.60;;;5.10;;
10088;SDS011;51898;49.864;8.550;2024-03-17T08:07:23;7.27;;;4.50;;
10088;SDS011;51898;49.864;8.550;2024-03-17T08:10:24;4.63;;;4.23;;
10088;SDS011;51898;49.864;8.550;2024-03-17T08:13:25;4.87;;;4.33;;
10088;SDS011;51898;49.864;8.550;2024-03-17T08:16:27;4.80;;;3.80;;
10088;SDS011;51898;49.864;8.550;2024-03-17T08:19:48;5.93;;;4.93;;
10088;SDS011;51898;49.864;8.550;2024-03-17T08:22:49;6.17;;;4.50;;
10088;SDS011;51898;49.864;8.550;2024-03-17T08:25:57;7.00;;;4.33;;
10088;SDS011;51898;49.864;8.550;2024-03-17T08:28:59;7.37;;;4.60;;
10088;SDS011;51898;49.864;8.550;2024-03-17T08:32:00;7.37;;;4.50;;
10088;SDS011;51898;49.864;8.550;2024-03-17T08:35:01;5.90;;;4.50;;
10088;SDS011;51898;49.864;8.550;2024-03-17T08:38:01;5.80;;;4.87;;
10088;SDS011;51898;49.864;8.550;2024-03-17T08:41:06;6.80;;;4.73;;
10088;SDS011;51898;49.864;8.550;2024-03-17T08:44:07;5.53;;;4.73;;
10088;SDS011;51898;49.864;8.550;2024-03-17T08:47:08;7.60;;;5.10;;
10088;SDS011;51898;49.864;8.550;2024-03-17T08:50:09;4.80;;;4.40;;
10088;SDS011;51898;49.864;8.550;2024-03-17T08:53:12;6.40;;;4.30;;
10088;SDS011;51898;49.864;8.550;2024-03-17T08:56:13;8.60;;;4.60;;
10088;SDS011;51898;49.864;8.550;2024-03-17T08:59:14;5.00;;;3.80;;
10088;SDS011;51898;49.864;8.550;2024-03-17T09:02:16;4.33;;;3.93;;
10088;SDS011;51898;49.864;8.550;2024-03-17T09:05:17;3.90;;;3.23;;
10088;SDS011;51898;49.864;8.550;2024-03-17T09:08:18;4.13;;;3.73;;
10088;SDS011;51898;49.864;8.550;2024-03-17T09:11:23;4.97;;;3.90;;
10088;SDS011;51898;49.864;8.550;2024-03-17T09:14:27;4.17;;;3.40;;
10088;SDS011;51898;49.864;8.550;2024-03-17T09:17:28;3.90;;;3.60;;
10088;SDS011;51898;49.864;8.550;2024-03-17T09:20:29;6.80;;;3.80;;
10088;SDS011;51898;49.864;8.550;2024-03-17T09:23:33;4.20;;;3.70;;
10088;SDS011;51898;49.864;8.550;2024-03-17T09:26:34;4.23;;;3.87;;
10088;SDS011;51898;49.864;8.550;2024-03-17T09:29:35;5.43;;;3.90;;
10088;SDS011;51898;49.864;8.550;2024-03-17T09:32:36;4.23;;;3.80;;
10088;SDS011;51898;49.864;8.550;2024-03-17T09:35:37;4.70;;;4.07;;
10088;SDS011;51898;49.864;8.550;2024-03-17T09:38:37;4.87;;;3.60;;
10088;SDS011;51898;49.864;8.550;2024-03-17T09:41:38;3.80;;;3.40;;
10088;SDS011;51898;49.864;8.550;2024-03-17T09:44:42;10.17;;;3.63;;
10088;SDS011;51898;49.864;8.550;2024-03-17T09:47:47;4.00;;;3.50;;
10088;SDS011;51898;49.864;8.550;2024-03-17T09:50:52;3.93;;;3.47;;
10088;SDS011;51898;49.864;8.550;2024-03-17T09:53:54;3.53;;;3.23;;
10088;SDS011;51898;49.864;8.550;2024-03-17T09:56:55;3.43;;;3.13;;
10088;SDS011;51898;49.864;8.550;2024-03-17T09:59:55;3.80;;;3.13;;
10088;SDS011;51898;49.864;8.550;2024-03-17T10:02:56;3.40;;;3.10;;
10088;SDS011;51898;49.864;8.550;2024-03-17T10:06:01;4.57;;;3.73;;
10088;SDS011;51898;49.864;8.550;2024-03-17T10:09:01;3.87;;;3.37;;
10088;SDS011;51898;49.864;8.550;2024-03-17T10:12:04;4.33;;;3.40;;
10088;SDS011;51898;49.864;8.550;2024-03-17T10:15:07;4.17;;;3.77;;
10088;SDS011;51898;49.864;8.550;2024-03-17T10:18:24;5.00;;;4.40;;
10088;SDS011;51898;49.864;8.550;2024-03-17T10:21:25;5.97;;;3.77;;
10088;SDS011;51898;49.864;8.550;2024-03-17T10:24:28;4.60;;;4.20;;
10088;SDS011;51898;49.864;8.550;2024-03-17T10:27:29;5.73;;;4.40;;
10088;SDS011;51898;49.864;8.550;2024-03-17T10:30:29;4.23;;;3.87;;
10088;SDS011;51898;49.864;8.550;2024-03-17T10:33:31;5.40;;;4.53;;
10088;SDS011;51898;49.864;8.550;2024-03-17T10:36:31;3.93;;;3.60;;
10088;SDS011;51898;49.864;8.550;2024-03-17T10:39:32;5.10;;;4.10;;
10088;SDS011;51898;49.864;8.550;2024-03-17T10:42:34;5.10;;;4.60;;
10088;SDS011;51898;49.864;8.550;2024-03-17T10:45:37;4.53;;;4.00;;
10088;SDS011;51898;49.864;8.550;2024-03-17T10:48:39;6.57;;;4.57;;
10088;SDS011;51898;49.864;8.550;2024-03-17T10:51:42;5.00;;;4.53;;
10088;SDS011;51898;49.864;8.550;2024-03-17T10:54:49;5.30;;;4.40;;
10088;SDS011;51898;49.864;8.550;2024-03-17T10:57:51;6.57;;;4.63;;
10088;SDS011;51898;49.864;8.550;2024-03-17T11:00:53;5.73;;;4.83;;
10088;SDS011;51898;49.864;8.550;2024-03-17T11:03:56;5.37;;;4.87;;
10088;SDS011;51898;49.864;8.550;2024-03-17T11:06:59;5.90;;;5.37;;
10088;SDS011;51898;49.864;8.550;2024-03-17T11:10:00;7.80;;;4.87;;
10088;SDS011;51898;49.864;8.550;2024-03-17T11:13:04;7.13;;;5.67;;
10088;SDS011;51898;49.864;8.550;2024-03-17T11:16:05;6.60;;;6.00;;
10088;SDS011;51898;49.864;8.550;2024-03-17T11:19:26;8.10;;;6.10;;
10088;SDS011;51898;49.864;8.550;2024-03-17T11:22:43;7.33;;;5.17;;
10088;SDS011;51898;49.864;8.550;2024-03-17T11:25:52;6.10;;;5.60;;
10088;SDS011;51898;49.864;8.550;2024-03-17T11:28:53;6.67;;;5.37;;
10088;SDS011;51898;49.864;8.550;2024-03-17T11:31:55;7.13;;;5.80;;
10088;SDS011;51898;49.864;8.550;2024-03-17T11:35:12;9.20;;;6.30;;
10088;SDS011;51898;49.864;8.550;2024-03-17T11:41:52;6.50;;;5.90;;
10088;SDS011;51898;49.864;8.550;2024-03-17T11:44:55;6.33;;;5.30;;
10088;SDS011;51898;49.864;8.550;2024-03-17T11:47:58;6.77;;;5.83;;
10088;SDS011;51898;49.864;8.550;2024-03-17T11:50:59;10.00;;;6.27;;
10088;SDS011;51898;49.864;8.550;2024-03-17T11:54:02;7.40;;;6.33;;
10088;SDS011;51898;49.864;8.550;2024-03-17T12:00:22;6.70;;;6.03;;
10088;SDS011;51898;49.864;8.550;2024-03-17T12:03:27;9.57;;;6.30;;
10088;SDS011;51898;49.864;8.550;2024-03-17T12:06:28;7.13;;;6.00;;
10088;SDS011;51898;49.864;8.550;2024-03-17T12:09:30;7.63;;;5.87;;
10088;SDS011;51898;49.864;8.550;2024-03-17T12:12:32;9.90;;;6.00;;
10088;SDS011;51898;49.864;8.550;2024-03-17T12:15:35;8.73;;;6.00;;
10088;SDS011;51898;49.864;8.550;2024-03-17T12:18:36;7.53;;;6.43;;
10088;SDS011;51898;49.864;8.550;2024-03-17T12:21:41;7.47;;;6.30;;
10088;SDS011;51898;49.864;8.550;2024-03-17T12:24:53;8.07;;;5.60;;
10088;SDS011;51898;49.864;8.550;2024-03-17T12:27:55;7.67;;;6.20;;
10088;SDS011;51898;49.864;8.550;2024-03-17T12:30:56;8.00;;;6.00;;
10088;SDS011;51898;49.864;8.550;2024-03-17T12:33:59;9.60;;;6.40;;
10088;SDS011;51898;49.864;8.550;2024-03-17T12:37:00;6.20;;;5.60;;
10088;SDS011;51898;49.864;8.550;2024-03-17T12:40:02;6.90;;;6.10;;
10088;SDS011;51898;49.864;8.550;2024-03-17T12:43:03;8.43;;;6.93;;
10088;SDS011;51898;49.864;8.550;2024-03-17T12:46:07;6.67;;;5.80;;
10088;SDS011;51898;49.864;8.550;2024-03-17T12:49:13;9.63;;;6.60;;
10088;SDS011;51898;49.864;8.550;2024-03-17T12:55:56;7.43;;;6.47;;
10088;SDS011;51898;49.864;8.550;2024-03-17T12:59:36;9.70;;;6.63;;
10088;SDS011;51898;49.864;8.550;2024-03-17T13:02:56;10.80;;;7.60;;
10088;SDS011;51898;49.864;8.550;2024-03-17T13:05:57;8.27;;;6.73;;
10088;SDS011;51898;49.864;8.550;2024-03-17T13:08:58;7.67;;;6.40;;
10088;SDS011;51898;49.864;8.550;2024-03-17T13:11:58;9.00;;;7.07;;
10088;SDS011;51898;49.864;8.550;2024-03-17T13:15:00;9.10;;;7.10;;
10088;SDS011;51898;49.864;8.550;2024-03-17T13:18:02;8.10;;;6.60;;
10088;SDS011;51898;49.864;8.550;2024-03-17T13:21:06;7.40;;;6.70;;
10088;SDS011;51898;49.864;8.550;2024-03-17T13:24:07;8.73;;;6.40;;
10088;SDS011;51898;49.864;8.550;2024-03-17T13:27:08;7.47;;;6.77;;
10088;SDS011;51898;49.864;8.550;2024-03-17T13:30:12;9.63;;;7.00;;
10088;SDS011;51898;49.864;8.550;2024-03-17T13:33:17;7.30;;;6.50;;
10088;SDS011;51898;49.864;8.550;2024-03-17T13:36:18;7.93;;;6.73;;
10088;SDS011;51898;49.864;8.550;2024-03-17T13:39:19;8.53;;;6.53;;
10088;SDS011;51898;49.864;8.550;2024-03-17T13:42:22;7.53;;;6.77;;
10088;SDS011;51898;49.864;8.550;2024-03-17T13:45:24;11.20;;;8.47;;
10088;SDS011;51898;49.864;8.550;2024-03-17T13:48:31;12.73;;;7.70;;
10088;SDS011;51898;49.864;8.550;2024-03-17T13:51:34;13.40;;;9.27;;
10088;SDS011;51898;49.864;8.550;2024-03-17T13:54:35;9.00;;;6.50;;
10088;SDS011;51898;49.864;8.550;2024-03-17T13:57:36;8.67;;;6.27;;
10088;SDS011;51898;49.864;8.550;2024-03-17T14:00:37;7.87;;;6.93;;
10088;SDS011;51898;49.864;8.550;2024-03-17T14:03:39;7.90;;;6.33;;
10088;SDS011;51898;49.864;8.550;2024-03-17T14:06:43;8.23;;;6.40;;
10088;SDS011;51898;49.864;8.550;2024-03-17T14:09:46;7.50;;;6.60;;
10088;SDS011;51898;49.864;8.550;2024-03-17T14:12:47;11.23;;;8.10;;
10088;SDS011;51898;49.864;8.550;2024-03-17T14:15:48;12.87;;;8.00;;
10088;SDS011;51898;49.864;8.550;2024-03-17T14:18:49;9.73;;;7.53;;
10088;SDS011;51898;49.864;8.550;2024-03-17T14:21:49;12.80;;;9.20;;
10088;SDS011;51898;49.864;8.550;2024-03-17T14:24:51;8.70;;;6.30;;
10088;SDS011;51898;49.864;8.550;2024-03-17T14:27:52;9.53;;;7.50;;
10088;SDS011;51898;49.864;8.550;2024-03-17T14:30:53;8.17;;;7.10;;
10088;SDS011;51898;49.864;8.550;2024-03-17T14:33:54;6.80;;;6.03;;
10088;SDS011;51898;49.864;8.550;2024-03-17T14:36:54;7.50;;;6.50;;
10088;SDS011;51898;49.864;8.550;2024-03-17T14:39:55;7.50;;;6.03;;
10088;SDS011;51898;49.864;8.550;2024-03-17T14:42:56;7.37;;;6.00;;
10088;SDS011;51898;49.864;8.550;2024-03-17T14:45:57;9.40;;;6.53;;
10088;SDS011;51898;49.864;8.550;2024-03-17T14:48:58;8.07;;;6.63;;
10088;SDS011;51898;49.864;8.550;2024-03-17T14:51:59;7.83;;;6.40;;
10088;SDS011;51898;49.864;8.550;2024-03-17T14:55:00;8.10;;;6.13;;
10088;SDS011;51898;49.864;8.550;2024-03-17T14:58:01;7.30;;;6.40;;
10088;SDS011;51898;49.864;8.550;2024-03-17T15:01:02;6.90;;;5.83;;
10088;SDS011;51898;49.864;8.550;2024-03-17T15:04:03;6.50;;;5.63;;
10088;SDS011;51898;49.864;8.550;2024-03-17T15:07:05;7.77;;;6.17;;
10088;SDS011;51898;49.864;8.550;2024-03-17T15:10:06;7.83;;;6.37;;
10088;SDS011;51898;49.864;8.550;2024-03-17T15:13:07;6.93;;;5.83;;
10088;SDS011;51898;49.864;8.550;2024-03-17T15:16:09;6.90;;;6.03;;
10088;SDS011;51898;49.864;8.550;2024-03-17T15:19:10;7.53;;;6.13;;
10088;SDS011;51898;49.864;8.550;2024-03-17T15:22:12;7.10;;;5.67;;
10088;SDS011;51898;49.864;8.550;2024-03-17T15:25:13;7.07;;;5.77;;
10088;SDS011;51898;49.864;8.550;2024-03-17T15:28:13;8.20;;;6.07;;
10088;SDS011;51898;49.864;8.550;2024-03-17T15:31:18;6.60;;;6.00;;
10088;SDS011;51898;49.864;8.550;2024-03-17T15:34:21;8.87;;;6.10;;
10088;SDS011;51898;49.864;8.550;2024-03-17T15:37:22;10.30;;;6.73;;
10088;SDS011;51898;49.864;8.550;2024-03-17T15:40:23;8.70;;;6.13;;
10088;SDS011;51898;49.864;8.550;2024-03-17T15:43:24;8.03;;;5.40;;
10088;SDS011;51898;49.864;8.550;2024-03-17T15:46:26;5.90;;;5.20;;
10088;SDS011;51898;49.864;8.550;2024-03-17T15:49:27;6.33;;;4.90;;
10088;SDS011;51898;49.864;8.550;2024-03-17T15:52:29;6.37;;;5.77;;
10088;SDS011;51898;49.864;8.550;2024-03-17T15:55:30;8.30;;;5.97;;
10088;SDS011;51898;49.864;8.550;2024-03-17T15:58:32;9.73;;;5.30;;
10088;SDS011;51898;49.864;8.550;2024-03-17T16:01:33;6.67;;;6.07;;
10088;SDS011;51898;49.864;8.550;2024-03-17T16:04:34;7.43;;;5.90;;
10088;SDS011;51898;49.864;8.550;2024-03-17T16:07:35;6.60;;;5.70;;
10088;SDS011;51898;49.864;8.550;2024-03-17T16:10:35;6.50;;;5.63;;
10088;SDS011;51898;49.864;8.550;2024-03-17T16:13:37;7.80;;;5.97;;
10088;SDS011;51898;49.864;8.550;2024-03-17T16:16:40;7.93;;;5.10;;
10088;SDS011;51898;49.864;8.550;2024-03-17T16:19:42;7.57;;;5.87;;
10088;SDS011;51898;49.864;8.550;2024-03-17T16:22:42;8.40;;;5.87;;
10088;SDS011;51898;49.864;8.550;2024-03-17T16:25:45;10.13;;;6.67;;
10088;SDS011;51898;49.864;8.550;2024-03-17T16:28:49;9.03;;;6.70;;
10088;SDS011;51898;49.864;8.550;2024-03-17T16:31:50;7.20;;;6.10;;
10088;SDS011;51898;49.864;8.550;2024-03-17T16:34:50;7.97;;;6.20;;
10088;SDS011;51898;49.864;8.550;2024-03-17T16:37:52;9.03;;;6.20;;
10088;SDS011;51898;49.864;8.550;2024-03-17T16:40:53;9.13;;;5.47;;
10088;SDS011;51898;49.864;8.550;2024-03-17T16:44:00;6.60;;;5.90;;
10088;SDS011;51898;49.864;8.550;2024-03-17T16:47:26;7.90;;;5.63;;
10088;SDS011;51898;49.864;8.550;2024-03-17T16:50:29;6.97;;;6.20;;
10088;SDS011;51898;49.864;8.550;2024-03-17T16:53:30;7.70;;;6.10;;
10088;SDS011;51898;49.864;8.550;2024-03-17T16:56:30;6.93;;;5.90;;
10088;SDS011;51898;49.864;8.550;2024-03-17T16:59:32;9.00;;;6.93;;
10088;SDS011;51898;49.864;8.550;2024-03-17T17:02:33;7.27;;;5.47;;
10088;SDS011;51898;49.864;8.550;2024-03-17T17:05:34;7.20;;;5.67;;
10088;SDS011;51898;49.864;8.550;2024-03-17T17:08:35;6.47;;;5.70;;
10088;SDS011;51898;49.864;8.550;2024-03-17T17:11:36;9.20;;;5.83;;
10088;SDS011;51898;49.864;8.550;2024-03-17T17:14:41;8.60;;;6.90;;
10088;SDS011;51898;49.864;8.550;2024-03-17T17:17:42;7.00;;;6.30;;
10088;SDS011;51898;49.864;8.550;2024-03-17T17:20:44;6.60;;;5.73;;
10088;SDS011;51898;49.864;8.550;2024-03-17T17:23:45;9.37;;;6.93;;
10088;SDS011;51898;49.864;8.550;2024-03-17T17:26:47;9.50;;;6.73;;
10088;SDS011;51898;49.864;8.550;2024-03-17T17:29:48;11.10;;;6.17;;
10088;SDS011;51898;49.864;8.550;2024-03-17T17:32:48;9.00;;;7.63;;
10088;SDS011;51898;49.864;8.550;2024-03-17T17:35:49;8.50;;;6.67;;
10088;SDS011;51898;49.864;8.550;2024-03-17T17:38:50;8.23;;;5.93;;
10088;SDS011;51898;49.864;8.550;2024-03-17T17:41:53;8.90;;;6.80;;
10088;SDS011;51898;49.864;8.550;2024-03-17T17:44:54;10.37;;;7.00;;
10088;SDS011;51898;49.864;8.550;2024-03-17T17:47:55;9.93;;;7.37;;
10088;SDS011;51898;49.864;8.550;2024-03-17T17:50:56;10.83;;;8.70;;
10088;SDS011;51898;49.864;8.550;2024-03-17T17:53:56;10.93;;;8.17;;
10088;SDS011;51898;49.864;8.550;2024-03-17T17:56:57;10.37;;;7.80;;
10088;SDS011;51898;49.864;8.550;2024-03-17T17:59:58;14.30;;;7.90;;
10088;SDS011;51898;49.864;8.550;2024-03-17T18:02:59;13.40;;;7.77;;
10088;SDS011;51898;49.864;8.550;2024-03-17T18:06:00;9.70;;;8.10;;
10088;SDS011;51898;49.864;8.550;2024-03-17T18:09:01;12.27;;;7.40;;
10088;SDS011;51898;49.864;8.550;2024-03-17T18:12:09;9.37;;;6.53;;
10088;SDS011;51898;49.864;8.550;2024-03-17T18:15:09;12.20;;;8.33;;
10088;SDS011;51898;49.864;8.550;2024-03-17T18:18:11;11.80;;;8.23;;
10088;SDS011;51898;49.864;8.550;2024-03-17T18:21:11;13.27;;;8.30;;
10088;SDS011;51898;49.864;8.550;2024-03-17T18:24:12;9.77;;;8.10;;